createdAt,value
2018-07-12T00:03:32.430Z,15
2018-07-12T00:13:31.984Z,16
2018-07-12T00:23:31.907Z,18
2018-07-12T00:33:31.931Z,17
2018-07-12T00:43:32.049Z,17
2018-07-12T00:53:31.934Z,23
2018-07-12T01:03:32.021Z,25
2018-07-12T01:13:31.978Z,27
2018-07-12T01:23:31.956Z,42
2018-07-12T01:33:31.952Z,27
2018-07-12T01:43:31.998Z,30
2018-07-12T01:53:31.902Z,29
2018-07-12T02:03:31.863Z,27
2018-07-12T02:13:31.934Z,29
2018-07-12T02:23:32.027Z,28
2018-07-12T02:33:31.954Z,26
2018-07-12T02:43:31.972Z,28
2018-07-12T02:53:32.034Z,28
2018-07-12T03:03:32.610Z,34
2018-07-12T03:13:31.931Z,28
2018-07-12T03:23:31.985Z,23
2018-07-12T03:33:31.951Z,29
2018-07-12T03:43:31.888Z,28
2018-07-12T03:53:31.985Z,32
2018-07-12T04:03:31.968Z,31
2018-07-12T04:13:32.002Z,26
2018-07-12T04:23:31.982Z,27
2018-07-12T04:33:32.011Z,28
2018-07-12T04:43:31.934Z,25
2018-07-12T04:53:32.060Z,22
2018-07-12T05:03:32.031Z,23
2018-07-12T05:13:32.131Z,22
2018-07-12T05:23:32.037Z,25
2018-07-12T05:33:31.996Z,20
2018-07-12T05:43:32.039Z,17
2018-07-12T05:53:32.090Z,18
2018-07-12T06:03:32.080Z,17
2018-07-12T06:13:32.047Z,22
2018-07-12T06:23:32.046Z,15
2018-07-12T06:33:32.629Z,11
2018-07-12T06:43:32.165Z,16
2018-07-12T06:53:32.252Z,9
2018-07-12T07:03:32.009Z,12
2018-07-12T07:13:32.016Z,9
2018-07-12T07:23:32.017Z,8
2018-07-12T07:33:32.046Z,9
2018-07-12T07:43:32.537Z,7
2018-07-12T07:53:33.514Z,9
2018-07-12T08:03:32.066Z,10
2018-07-12T08:13:32.205Z,9
2018-07-12T08:23:32.187Z,6
2018-07-12T08:33:32.249Z,6
2018-07-12T08:43:32.073Z,6
2018-07-12T08:53:32.404Z,6
2018-07-12T09:03:32.176Z,7
2018-07-12T09:13:32.048Z,7
2018-07-12T09:23:32.135Z,9
2018-07-12T09:33:32.120Z,9
2018-07-12T09:43:32.117Z,10
2018-07-12T09:53:32.104Z,11
2018-07-12T10:03:32.132Z,11
2018-07-12T10:13:32.191Z,14
2018-07-12T10:23:32.053Z,13
2018-07-12T10:33:32.095Z,13
2018-07-12T10:43:32.100Z,13
2018-07-12T10:53:32.136Z,14
2018-07-12T11:03:32.083Z,13
2018-07-12T11:13:32.200Z,14
2018-07-12T11:23:32.091Z,15
2018-07-12T11:33:32.161Z,12
2018-07-12T11:43:32.491Z,12
2018-07-12T11:53:32.200Z,12
2018-07-12T12:03:32.396Z,10
2018-07-12T12:13:32.347Z,11
2018-07-12T12:23:32.420Z,10
2018-07-12T12:33:32.563Z,9
2018-07-12T12:43:32.323Z,10
2018-07-12T12:53:32.169Z,9
2018-07-12T13:03:32.229Z,7
2018-07-12T13:13:32.845Z,5
2018-07-12T13:23:32.150Z,5
2018-07-12T13:33:32.285Z,6
2018-07-12T13:43:32.214Z,5
2018-07-12T13:53:33.288Z,8
2018-07-12T14:03:32.220Z,5
2018-07-12T14:13:32.337Z,6
2018-07-12T14:23:33.307Z,5
2018-07-12T14:33:34.707Z,4
2018-07-12T14:43:34.207Z,4
2018-07-12T14:53:32.137Z,4
2018-07-12T15:03:32.183Z,5
2018-07-12T15:13:34.272Z,4
2018-07-12T15:23:33.205Z,6
2018-07-12T15:33:33.383Z,5
2018-07-12T15:43:32.255Z,4
2018-07-12T15:53:32.212Z,6
2018-07-12T16:03:32.141Z,4
2018-07-12T16:13:32.229Z,19
2018-07-12T16:23:32.250Z,7
2018-07-12T16:33:34.332Z,6
2018-07-12T16:43:32.825Z,7
2018-07-12T16:53:33.577Z,7
2018-07-12T17:03:33.434Z,10
2018-07-12T17:13:32.235Z,7
2018-07-12T17:23:32.223Z,8
2018-07-12T17:33:32.278Z,7
2018-07-12T17:43:32.222Z,8
2018-07-12T17:53:32.269Z,7
2018-07-12T18:03:32.373Z,8
2018-07-12T18:13:32.251Z,5
2018-07-12T18:23:32.283Z,4
2018-07-12T18:33:32.431Z,5
2018-07-12T18:43:32.600Z,6
2018-07-12T18:53:32.524Z,5
2018-07-12T19:03:32.616Z,6
2018-07-12T19:13:32.207Z,6
2018-07-12T19:23:32.228Z,8
2018-07-12T19:33:32.423Z,6
2018-07-12T19:43:32.522Z,7
2018-07-12T19:53:32.292Z,8
2018-07-12T20:03:32.563Z,7
2018-07-12T20:13:33.255Z,9
2018-07-12T20:23:32.424Z,9
2018-07-12T20:33:32.743Z,8
2018-07-12T20:43:32.632Z,9
2018-07-12T20:53:32.617Z,8
2018-07-12T21:03:33.248Z,12
2018-07-12T21:13:33.579Z,9
2018-07-12T21:23:34.024Z,9
2018-07-12T21:33:32.679Z,8
2018-07-12T21:43:32.551Z,10
2018-07-12T21:53:32.263Z,7
2018-07-12T22:03:32.548Z,8
2018-07-12T22:13:32.236Z,7
2018-07-12T22:23:32.428Z,8
2018-07-12T22:33:32.554Z,7
2018-07-12T22:43:32.496Z,8
2018-07-12T22:53:32.231Z,11
2018-07-12T23:03:32.236Z,16
2018-07-12T23:13:32.587Z,13
2018-07-12T23:23:32.417Z,9
2018-07-12T23:33:32.744Z,12
2018-07-12T23:43:32.198Z,10
2018-07-12T23:53:32.203Z,12
